Dennis Port, MA

10:31 AM EST on December 18, 2014 (GMT -0500)
Chatham Municipal | Change Station
CLOSE
Current Station
Airport
Location: Chatham,
Elevation: 66 ft
Nearby Weather Stations

Elev 66 ft 41.69 °N, 69.99 °W | Updated 39 minutes ago

Overcast
Overcast
37 °F
Feels Like 29 °F
N
13
Wind Variable Wind from WNW
Gusts 23 mph

Today
High -- | Low -- °F
--% Chance of Precip.
Yesterday
High -- | Low -- °F
Precip. -- in
7:02 AM 4:11 PM
Waning Crescent, 14% visible
Pressure 29.79 in
Visibility 10.0 miles
Clouds Mostly Cloudy 1600 ft
Overcast 4500 ft
Windchill 29 °F
Dew Point 33 °F
Humidity 86%
Rainfall 0.03 in
Snow Depth Not available.
UV 0 out of 12
Pollen .10 out of 12
Air Quality Not available.
Flu Activity Not available.
METAR KCQX 181452Z AUTO 29011G20KT 10SM BKN016 OVC045 03/01 A2978 RMK AO2 RAE42 SLP086 P0001 60002 T00280006 53013

More Conditions Fewer Conditions

Pressure 29.79 in
Visibility 10.0 miles
Clouds Mostly Cloudy 1600 ft
Overcast 4500 ft
Windchill 29 °F
Dew Point 33 °F
Humidity 86%
Rainfall 0.03 in
Snow Depth Not available.
UV 0 out of 12
Pollen .10 out of 12
Air Quality Not available.
Flu Activity Not available.
METAR KCQX 181452Z AUTO 29011G20KT 10SM BKN016 OVC045 03/01 A2978 RMK AO2 RAE42 SLP086 P0001 60002 T00280006 53013

More Conditions Fewer Conditions

10-Day Weather Forecast

Almanac

Astronomy

Dec. 18, 2014 Rise Set
Actual Time
Civil Twilight
Nautical Twilight
Astronomical Twilight
Moon
Length of Visible Light
Length of Day
Tomorrow will be .
, % of the Moon is Illuminated

Today's Extremes

State Highs State Lows

Community

WunderPhotos

Upload Photos

1,778,947 photos uploaded!

WunderBlogs® & News

Nearby

Air Quality

  Air Quality AQ Index Pollutant
Not available.

Snow Depth

Station Depth Elevation

Earthquake Activity

City Distance Mag. Time & Date
Minimum magnitude displayed is 2.5.

Coastal Water Temperatures

Place Temperature

Nearby Weather Stations